Time;durP1;ratioP1;P1;durP2;ratioP2;P2;SDS_P1;SDS_P2;PMS_P1;PMS_P2;Temp;Humidity;BMP_temperature;BMP_pressure;BME280_temperature;BME280_humidity;BME280_pressure;Samples;Min_cycle;Max_cycle;Signal;HPM_P1;HPM_P2
2021/08/12 00:02:03;;;;;;;5.38;3.30;;;;;;;;;;5046989;28;20185;-83
2021/08/12 00:04:29;;;;;;;5.88;4.10;;;;;;;;;;5040581;28;20216;-83
2021/08/12 00:06:56;;;;;;;3.90;3.50;;;;;;;;;;5038037;28;20228;-82
2021/08/12 00:09:22;;;;;;;3.95;3.53;;;;;;;;;;5036093;28;20214;-83
2021/08/12 00:11:48;;;;;;;7.10;4.70;;;;;;;;;;5031317;28;20210;-83
2021/08/12 00:14:14;;;;;;;6.10;4.60;;;;;;;;;;5027977;28;20213;-83
2021/08/12 00:16:40;;;;;;;4.25;3.85;;;;;;;;;;5031110;28;20471;-82
2021/08/12 00:19:11;;;;;;;6.03;4.15;;;;;;;;;;5033398;28;20254;-83
2021/08/12 00:21:37;;;;;;;4.25;3.85;;;;;;;;;;5034886;28;20246;-82
2021/08/12 00:24:03;;;;;;;4.53;3.97;;;;;;;;;;5034688;28;20185;-82
2021/08/12 00:26:29;;;;;;;5.97;3.90;;;;;;;;;;5030100;28;20260;-82
2021/08/12 00:28:55;;;;;;;4.73;4.27;;;;;;;;;;5028156;28;20202;-83
2021/08/12 00:31:21;;;;;;;4.27;3.87;;;;;;;;;;5045813;28;20444;-83
2021/08/12 00:33:47;;;;;;;4.30;3.90;;;;;;;;;;5044966;28;20461;-82
2021/08/12 00:36:13;;;;;;;4.43;4.03;;;;;;;;;;5043697;28;20471;-83
2021/08/12 00:38:39;;;;;;;3.55;3.30;;;;;;;;;;5028480;28;20179;-83
2021/08/12 00:41:05;;;;;;;3.73;3.43;;;;;;;;;;5028272;28;20285;-83
2021/08/12 00:43:31;;;;;;;4.83;4.33;;;;;;;;;;5039785;28;20411;-83
2021/08/12 00:45:57;;;;;;;5.60;3.75;;;;;;;;;;5046146;28;20440;-83
2021/08/12 00:48:23;;;;;;;4.43;3.95;;;;;;;;;;5047379;28;20189;-83
2021/08/12 00:50:50;;;;;;;3.80;3.40;;;;;;;;;;5046851;28;20189;-83
2021/08/12 00:53:16;;;;;;;3.75;3.35;;;;;;;;;;5045578;28;20930;-82
2021/08/12 00:55:43;;;;;;;4.25;3.83;;;;;;;;;;5041079;28;20205;-82
2021/08/12 00:58:10;;;;;;;5.70;3.63;;;;;;;;;;5035081;28;20220;-82
2021/08/12 01:00:36;;;;;;;4.20;3.90;;;;;;;;;;5038312;28;20220;-83
2021/08/12 01:03:03;;;;;;;4.78;3.78;;;;;;;;;;5045606;28;20177;-83
2021/08/12 01:05:30;;;;;;;3.63;3.28;;;;;;;;;;5044677;28;20193;-83
2021/08/12 01:08:11;;;;;;;5.07;3.60;;;;;;;;;;5028639;28;20179;-83
2021/08/12 01:10:46;;;;;;;5.72;3.70;;;;;;;;;;5046846;28;20177;-83
2021/08/12 01:13:17;;;;;;;6.40;3.88;;;;;;;;;;5044338;28;20641;-83
2021/08/12 01:15:48;;;;;;;5.50;4.03;;;;;;;;;;5045896;28;20198;-83
2021/08/12 01:18:20;;;;;;;7.22;4.65;;;;;;;;;;5043525;28;20218;-82
2021/08/12 01:21:04;;;;;;;3.75;3.35;;;;;;;;;;5027422;28;20183;-83
2021/08/12 01:23:30;;;;;;;4.80;4.30;;;;;;;;;;5030463;28;20189;-83
2021/08/12 01:25:57;;;;;;;4.85;4.43;;;;;;;;;;5029812;28;20228;-83
2021/08/12 01:28:28;;;;;;;5.68;4.25;;;;;;;;;;5043560;28;20182;-83
2021/08/12 01:30:54;;;;;;;5.03;3.85;;;;;;;;;;5044058;28;20197;-83
2021/08/12 01:33:28;;;;;;;6.00;3.78;;;;;;;;;;5045814;28;20192;-83
2021/08/12 01:35:56;;;;;;;5.70;4.38;;;;;;;;;;5044597;28;20210;-83
2021/08/12 01:38:24;;;;;;;5.47;4.30;;;;;;;;;;5045111;28;20256;-83
2021/08/12 01:40:51;;;;;;;5.80;3.83;;;;;;;;;;5043435;28;20173;-83
2021/08/12 01:43:19;;;;;;;7.20;4.28;;;;;;;;;;5044024;28;20481;-82
2021/08/12 01:45:49;;;;;;;3.67;3.38;;;;;;;;;;5046403;28;20263;-83
2021/08/12 01:48:16;;;;;;;4.03;3.63;;;;;;;;;;5043219;28;20185;-83
2021/08/12 01:50:43;;;;;;;4.85;4.45;;;;;;;;;;5026659;28;20187;-83
2021/08/12 01:53:10;;;;;;;5.32;3.72;;;;;;;;;;5024300;28;20182;-82
2021/08/12 01:55:36;;;;;;;5.85;4.35;;;;;;;;;;5031415;28;20212;-82
2021/08/12 01:58:02;;;;;;;7.35;4.13;;;;;;;;;;5036488;28;20236;-83
2021/08/12 02:00:30;;;;;;;4.30;3.90;;;;;;;;;;5040024;28;20248;-83
2021/08/12 02:02:56;;;;;;;5.47;3.85;;;;;;;;;;5030368;28;20218;-83
2021/08/12 02:05:23;;;;;;;4.20;3.80;;;;;;;;;;5043794;28;20192;-83
2021/08/12 02:07:49;;;;;;;4.38;3.97;;;;;;;;;;5043389;28;20245;-82
2021/08/12 02:10:16;;;;;;;5.57;4.25;;;;;;;;;;5041349;28;20664;-83
2021/08/12 02:12:42;;;;;;;4.50;4.03;;;;;;;;;;5039840;28;20214;-83
2021/08/12 02:15:09;;;;;;;3.97;3.67;;;;;;;;;;5031963;28;20183;-83
2021/08/12 02:17:35;;;;;;;4.45;3.85;;;;;;;;;;5031052;28;20192;-83
2021/08/12 02:20:02;;;;;;;5.72;4.00;;;;;;;;;;5041860;28;20217;-83
2021/08/12 02:22:30;;;;;;;5.45;4.40;;;;;;;;;;5032846;28;20277;-83
2021/08/12 02:25:02;;;;;;;4.20;3.75;;;;;;;;;;5041685;28;20182;-82
2021/08/12 02:27:29;;;;;;;5.38;4.60;;;;;;;;;;5043001;28;20178;-83
2021/08/12 02:29:55;;;;;;;3.50;3.20;;;;;;;;;;5045625;28;20192;-83
2021/08/12 02:32:24;;;;;;;4.10;3.70;;;;;;;;;;5043202;28;20186;-83
2021/08/12 02:34:51;;;;;;;5.03;4.50;;;;;;;;;;5028570;28;20181;-83
2021/08/12 02:37:18;;;;;;;6.75;4.68;;;;;;;;;;5048621;28;20274;-83
2021/08/12 02:39:44;;;;;;;4.20;3.80;;;;;;;;;;5040400;28;20278;-83
2021/08/12 02:42:11;;;;;;;6.28;4.57;;;;;;;;;;5036898;28;20205;-83
2021/08/12 02:44:39;;;;;;;4.63;3.53;;;;;;;;;;5034120;28;20182;-83
2021/08/12 02:47:05;;;;;;;4.40;4.03;;;;;;;;;;5046875;28;20793;-82
2021/08/12 02:49:33;;;;;;;6.50;3.83;;;;;;;;;;5049283;28;20203;-82
2021/08/12 02:52:00;;;;;;;5.00;4.47;;;;;;;;;;5047235;28;20185;-82
2021/08/12 02:54:29;;;;;;;4.35;4.00;;;;;;;;;;5044840;28;20684;-83
2021/08/12 02:56:59;;;;;;;4.47;4.07;;;;;;;;;;5046884;28;20255;-83
2021/08/12 02:59:25;;;;;;;7.22;3.92;;;;;;;;;;5031091;28;23930;-83
2021/08/12 03:01:55;;;;;;;4.72;4.15;;;;;;;;;;5031765;28;20171;-83
2021/08/12 03:04:21;;;;;;;5.13;4.72;;;;;;;;;;5036640;28;20182;-83
2021/08/12 03:06:49;;;;;;;4.88;4.40;;;;;;;;;;5041983;28;20205;-83
2021/08/12 03:09:16;;;;;;;4.95;3.95;;;;;;;;;;5046300;28;20186;-83
2021/08/12 03:11:42;;;;;;;3.75;3.45;;;;;;;;;;5045143;28;20213;-82
2021/08/12 03:14:08;;;;;;;4.22;3.83;;;;;;;;;;5030084;28;20185;-83
2021/08/12 03:16:34;;;;;;;5.00;3.95;;;;;;;;;;5042301;28;20213;-83
2021/08/12 03:19:02;;;;;;;4.60;3.75;;;;;;;;;;5046701;28;20236;-82
2021/08/12 03:21:28;;;;;;;5.68;5.03;;;;;;;;;;5042142;28;20178;-83
2021/08/12 03:24:01;;;;;;;6.90;3.80;;;;;;;;;;5034422;28;20189;-83
2021/08/12 03:26:27;;;;;;;4.57;4.00;;;;;;;;;;5031868;28;20419;-82
2021/08/12 03:28:53;;;;;;;3.80;3.50;;;;;;;;;;5030749;28;20186;-83
2021/08/12 03:31:19;;;;;;;3.97;3.63;;;;;;;;;;5045830;28;20185;-83
2021/08/12 03:33:45;;;;;;;5.33;3.83;;;;;;;;;;5041226;28;20193;-85
2021/08/12 03:36:11;;;;;;;4.97;4.47;;;;;;;;;;5034433;28;20468;-85
2021/08/12 03:38:37;;;;;;;4.57;4.00;;;;;;;;;;5033491;28;20197;-85
2021/08/12 03:41:04;;;;;;;4.22;3.60;;;;;;;;;;5045058;28;20182;-85
2021/08/12 03:43:30;;;;;;;4.95;4.40;;;;;;;;;;5048087;28;20170;-84
2021/08/12 03:45:56;;;;;;;5.07;4.57;;;;;;;;;;5037999;28;20194;-85
2021/08/12 03:48:22;;;;;;;5.63;4.50;;;;;;;;;;5037526;28;20436;-85
2021/08/12 03:50:48;;;;;;;5.35;4.55;;;;;;;;;;5045056;28;20464;-85
2021/08/12 03:53:14;;;;;;;7.50;4.27;;;;;;;;;;5029396;28;20205;-85
2021/08/12 03:55:40;;;;;;;4.65;4.00;;;;;;;;;;5047639;28;20464;-85
2021/08/12 03:58:06;;;;;;;4.85;4.25;;;;;;;;;;5046205;28;20190;-85
2021/08/12 04:00:32;;;;;;;4.70;4.20;;;;;;;;;;5048630;28;20220;-85
2021/08/12 04:02:58;;;;;;;4.82;4.35;;;;;;;;;;5047249;28;20444;-85
2021/08/12 04:05:24;;;;;;;4.40;4.00;;;;;;;;;;5047761;28;20184;-86
2021/08/12 04:07:50;;;;;;;5.80;4.25;;;;;;;;;;5030903;28;20428;-85
2021/08/12 04:10:16;;;;;;;4.80;4.40;;;;;;;;;;5045981;28;20276;-85
2021/08/12 04:12:42;;;;;;;7.80;4.75;;;;;;;;;;5043942;28;20606;-85
2021/08/12 04:15:08;;;;;;;7.38;4.65;;;;;;;;;;5046929;28;20193;-85
2021/08/12 04:17:34;;;;;;;5.88;4.60;;;;;;;;;;5031564;28;20656;-86
2021/08/12 04:20:00;;;;;;;5.00;4.50;;;;;;;;;;5028836;28;20286;-85
2021/08/12 04:22:26;;;;;;;6.03;4.95;;;;;;;;;;5046970;28;20192;-85
2021/08/12 04:24:52;;;;;;;5.75;4.10;;;;;;;;;;5046015;28;20192;-86
2021/08/12 04:27:18;;;;;;;9.43;4.30;;;;;;;;;;5045265;28;20185;-85
2021/08/12 04:29:44;;;;;;;5.68;5.07;;;;;;;;;;5044611;28;20175;-86
2021/08/12 04:32:10;;;;;;;4.13;3.83;;;;;;;;;;5028467;28;20178;-85
2021/08/12 04:34:36;;;;;;;5.70;4.30;;;;;;;;;;5034147;28;20846;-85
2021/08/12 04:37:03;;;;;;;6.78;3.60;;;;;;;;;;5040932;28;20206;-85
2021/08/12 04:39:29;;;;;;;5.00;3.95;;;;;;;;;;5042705;28;20174;-85
2021/08/12 04:41:55;;;;;;;4.43;4.03;;;;;;;;;;5046537;28;20239;-84
2021/08/12 04:44:21;;;;;;;8.60;3.83;;;;;;;;;;5045055;28;20174;-85
2021/08/12 04:46:47;;;;;;;5.37;4.37;;;;;;;;;;5045529;28;20182;-86
2021/08/12 04:49:13;;;;;;;5.37;3.67;;;;;;;;;;5034893;28;20436;-86
2021/08/12 04:51:39;;;;;;;5.20;4.13;;;;;;;;;;5032726;28;20921;-85
2021/08/12 04:54:05;;;;;;;5.47;4.25;;;;;;;;;;5033831;28;20646;-85
2021/08/12 04:56:31;;;;;;;4.67;4.23;;;;;;;;;;5044752;28;20210;-85
2021/08/12 04:58:58;;;;;;;4.97;4.20;;;;;;;;;;5044839;28;20436;-85
2021/08/12 05:01:24;;;;;;;5.60;4.35;;;;;;;;;;5047508;28;20412;-85
2021/08/12 05:03:50;;;;;;;5.85;4.53;;;;;;;;;;5041020;28;20192;-85
2021/08/12 05:06:16;;;;;;;5.03;4.53;;;;;;;;;;5034673;28;20281;-84
2021/08/12 05:08:46;;;;;;;4.90;4.45;;;;;;;;;;5046688;28;20439;-85
2021/08/12 05:11:13;;;;;;;5.65;4.38;;;;;;;;;;5044020;28;20296;-84
2021/08/12 05:13:39;;;;;;;5.38;4.88;;;;;;;;;;5030968;28;20642;-85
2021/08/12 05:16:05;;;;;;;4.00;3.65;;;;;;;;;;5044351;28;20229;-85
2021/08/12 05:18:31;;;;;;;7.13;4.13;;;;;;;;;;5041139;28;20222;-85
2021/08/12 05:20:57;;;;;;;4.75;4.25;;;;;;;;;;5033263;28;20213;-85
2021/08/12 05:23:24;;;;;;;5.07;4.57;;;;;;;;;;5028973;28;20185;-85
2021/08/12 05:25:49;;;;;;;5.90;4.60;;;;;;;;;;5040666;28;20506;-85
2021/08/12 05:28:15;;;;;;;4.87;4.40;;;;;;;;;;5045502;28;20217;-85
2021/08/12 05:30:42;;;;;;;5.72;4.78;;;;;;;;;;5046909;28;21142;-86
2021/08/12 05:33:08;;;;;;;9.02;5.00;;;;;;;;;;5044700;28;20220;-85
2021/08/12 05:35:35;;;;;;;6.22;4.93;;;;;;;;;;5030972;28;20209;-84
2021/08/12 05:38:01;;;;;;;5.55;4.85;;;;;;;;;;5028195;28;20178;-85
2021/08/12 05:40:27;;;;;;;5.50;4.85;;;;;;;;;;5033457;28;20186;-86
2021/08/12 05:42:53;;;;;;;5.90;5.13;;;;;;;;;;5032080;28;20254;-85
2021/08/12 05:45:19;;;;;;;5.53;4.55;;;;;;;;;;5034514;28;20430;-85
2021/08/12 05:47:45;;;;;;;5.80;4.90;;;;;;;;;;5029839;28;20189;-85
2021/08/12 05:50:11;;;;;;;5.80;5.20;;;;;;;;;;5043033;28;20174;-85
2021/08/12 05:52:37;;;;;;;4.78;4.28;;;;;;;;;;5046071;28;20421;-85
2021/08/12 05:55:04;;;;;;;5.35;4.85;;;;;;;;;;5044705;28;20181;-84
2021/08/12 05:57:30;;;;;;;5.80;5.30;;;;;;;;;;5045251;28;20186;-84
2021/08/12 05:59:56;;;;;;;5.67;5.03;;;;;;;;;;5045127;28;20204;-85
2021/08/12 06:02:22;;;;;;;6.93;6.23;;;;;;;;;;5028237;28;20451;-85
2021/08/12 06:04:48;;;;;;;5.80;5.20;;;;;;;;;;5043940;28;20931;-85
2021/08/12 06:07:14;;;;;;;6.20;5.60;;;;;;;;;;5043969;28;20460;-85
2021/08/12 06:09:40;;;;;;;7.45;6.68;;;;;;;;;;5038254;28;20638;-85
2021/08/12 06:12:06;;;;;;;7.10;5.72;;;;;;;;;;5032321;28;20220;-84
2021/08/12 06:14:32;;;;;;;12.13;5.47;;;;;;;;;;5043522;28;20190;-85
2021/08/12 06:16:58;;;;;;;6.32;5.72;;;;;;;;;;5043145;28;20444;-85
2021/08/12 06:19:24;;;;;;;5.53;5.00;;;;;;;;;;5044779;28;20435;-85
2021/08/12 06:21:50;;;;;;;5.45;4.80;;;;;;;;;;5045531;28;20439;-85
2021/08/12 06:24:16;;;;;;;7.17;4.77;;;;;;;;;;5045410;28;20245;-84
2021/08/12 06:26:44;;;;;;;5.50;4.95;;;;;;;;;;5041411;28;20501;-85
2021/08/12 06:29:10;;;;;;;5.38;4.95;;;;;;;;;;5027481;28;20205;-84
2021/08/12 06:31:37;;;;;;;5.03;4.53;;;;;;;;;;5037914;28;20193;-84
2021/08/12 06:34:03;;;;;;;4.80;4.40;;;;;;;;;;5037050;28;20277;-85
2021/08/12 06:36:31;;;;;;;5.53;5.03;;;;;;;;;;5032977;28;20213;-85
2021/08/12 06:38:59;;;;;;;7.32;6.63;;;;;;;;;;5031217;28;20178;-84
2021/08/12 06:41:25;;;;;;;5.78;4.85;;;;;;;;;;5026963;28;20180;-85
2021/08/12 06:43:51;;;;;;;6.15;5.47;;;;;;;;;;5027180;28;20178;-85
2021/08/12 06:46:17;;;;;;;5.60;4.87;;;;;;;;;;5032291;28;20189;-84
2021/08/12 06:48:43;;;;;;;6.80;5.27;;;;;;;;;;5038051;28;20456;-85
2021/08/12 06:51:10;;;;;;;6.05;4.90;;;;;;;;;;5046099;28;20432;-84
2021/08/12 06:53:36;;;;;;;5.50;4.65;;;;;;;;;;5045757;28;20181;-85
2021/08/12 06:56:02;;;;;;;7.47;4.80;;;;;;;;;;5043140;28;20201;-84
2021/08/12 06:58:28;;;;;;;6.63;5.50;;;;;;;;;;5032284;28;20476;-84
2021/08/12 07:00:54;;;;;;;6.67;6.03;;;;;;;;;;5040172;28;20177;-84
2021/08/12 07:03:20;;;;;;;7.45;5.80;;;;;;;;;;5039569;28;20883;-84
2021/08/12 07:05:46;;;;;;;5.80;5.18;;;;;;;;;;5032703;28;20714;-84
2021/08/12 07:08:12;;;;;;;6.70;5.25;;;;;;;;;;5042973;28;20179;-84
2021/08/12 07:10:39;;;;;;;7.20;5.20;;;;;;;;;;5045619;28;20308;-84
2021/08/12 07:13:05;;;;;;;8.73;4.60;;;;;;;;;;5044259;28;20437;-84
2021/08/12 07:15:31;;;;;;;6.47;5.10;;;;;;;;;;5040680;28;20211;-84
2021/08/12 07:17:57;;;;;;;7.15;6.40;;;;;;;;;;5033297;28;20492;-84
2021/08/12 07:20:23;;;;;;;7.03;5.07;;;;;;;;;;5027043;28;20186;-84
2021/08/12 07:22:49;;;;;;;6.10;5.50;;;;;;;;;;5045346;28;20185;-84
2021/08/12 07:25:15;;;;;;;6.07;4.95;;;;;;;;;;5044384;28;20178;-84
2021/08/12 07:27:41;;;;;;;8.87;5.63;;;;;;;;;;5042182;28;20199;-84
2021/08/12 07:30:07;;;;;;;8.50;5.73;;;;;;;;;;5036357;28;20430;-85
2021/08/12 07:32:33;;;;;;;9.02;5.40;;;;;;;;;;5045964;28;20557;-84
2021/08/12 07:34:59;;;;;;;5.30;4.45;;;;;;;;;;5029302;28;20181;-84
2021/08/12 07:37:25;;;;;;;5.63;5.13;;;;;;;;;;5035174;28;20199;-84
2021/08/12 07:39:52;;;;;;;5.65;4.95;;;;;;;;;;5036295;28;20435;-85
2021/08/12 07:42:19;;;;;;;6.07;4.73;;;;;;;;;;5037417;28;20191;-84
2021/08/12 07:44:46;;;;;;;8.75;5.55;;;;;;;;;;5043290;28;20435;-84
2021/08/12 07:47:12;;;;;;;7.93;5.95;;;;;;;;;;5031687;28;20202;-83
2021/08/12 07:49:38;;;;;;;5.95;4.97;;;;;;;;;;5033348;28;20400;-84
2021/08/12 07:52:05;;;;;;;7.40;5.30;;;;;;;;;;5045198;28;20216;-84
2021/08/12 07:54:31;;;;;;;5.65;5.05;;;;;;;;;;5048080;28;20197;-84
2021/08/12 07:56:57;;;;;;;7.28;4.40;;;;;;;;;;5048184;28;20204;-84
2021/08/12 07:59:23;;;;;;;5.73;5.10;;;;;;;;;;5029582;28;20216;-84
2021/08/12 08:01:49;;;;;;;6.00;4.90;;;;;;;;;;5047234;28;20527;-84
2021/08/12 08:04:15;;;;;;;6.72;5.10;;;;;;;;;;5036204;28;20437;-84
2021/08/12 08:06:41;;;;;;;5.40;4.60;;;;;;;;;;5033618;28;20185;-84
2021/08/12 08:09:07;;;;;;;6.97;5.37;;;;;;;;;;5037161;28;20436;-84
2021/08/12 08:11:33;;;;;;;6.27;4.50;;;;;;;;;;5047863;28;20780;-83
2021/08/12 08:13:59;;;;;;;5.82;5.13;;;;;;;;;;5027213;28;20428;-83
2021/08/12 08:16:27;;;;;;;7.15;4.65;;;;;;;;;;5036576;28;20198;-84
2021/08/12 08:18:53;;;;;;;6.85;4.88;;;;;;;;;;5043963;28;20598;-83
2021/08/12 08:21:19;;;;;;;4.83;4.40;;;;;;;;;;5046832;28;20197;-83
2021/08/12 08:23:45;;;;;;;5.10;4.70;;;;;;;;;;5045722;28;20417;-84
2021/08/12 08:26:10;;;;;;;5.67;5.00;;;;;;;;;;5044100;28;20456;-83
2021/08/12 08:28:36;;;;;;;4.83;4.30;;;;;;;;;;5047361;28;20431;-83
2021/08/12 08:31:02;;;;;;;4.37;3.90;;;;;;;;;;5037031;28;20447;-83
2021/08/12 08:33:35;;;;;;;4.87;4.47;;;;;;;;;;5037722;28;20451;-84
2021/08/12 08:36:01;;;;;;;5.23;4.13;;;;;;;;;;5047424;28;20802;-83
2021/08/12 08:38:27;;;;;;;4.60;4.20;;;;;;;;;;5027765;28;20423;-83
2021/08/12 08:40:53;;;;;;;6.93;5.40;;;;;;;;;;5029042;28;20410;-83
2021/08/12 08:43:19;;;;;;;5.37;4.13;;;;;;;;;;5034508;28;20794;-84
2021/08/12 08:45:45;;;;;;;5.10;3.90;;;;;;;;;;5041850;28;20432;-84
2021/08/12 08:48:13;;;;;;;7.67;4.70;;;;;;;;;;5046993;28;20451;-84
2021/08/12 08:50:40;;;;;;;5.30;4.80;;;;;;;;;;5047349;28;20434;-82
2021/08/12 08:53:07;;;;;;;5.20;4.30;;;;;;;;;;5044616;28;20425;-84
2021/08/12 08:55:33;;;;;;;6.43;4.50;;;;;;;;;;5047538;28;20430;-84
2021/08/12 08:58:00;;;;;;;6.67;4.40;;;;;;;;;;5044738;28;20495;-84
2021/08/12 09:00:26;;;;;;;4.37;3.87;;;;;;;;;;5042140;28;20416;-84
2021/08/12 09:02:53;;;;;;;5.37;4.87;;;;;;;;;;5031306;28;20439;-84
2021/08/12 09:05:19;;;;;;;8.40;4.70;;;;;;;;;;5029539;28;20384;-83
2021/08/12 09:07:45;;;;;;;8.30;5.40;;;;;;;;;;5032485;28;20839;-84
2021/08/12 09:10:12;;;;;;;4.77;4.37;;;;;;;;;;5043079;28;20407;-83
2021/08/12 09:12:38;;;;;;;4.93;4.30;;;;;;;;;;5040495;28;20507;-84
2021/08/12 09:15:05;;;;;;;8.47;3.93;;;;;;;;;;5033763;28;20428;-84
2021/08/12 09:17:32;;;;;;;4.83;4.37;;;;;;;;;;5031288;28;20463;-84
2021/08/12 09:20:14;;;;;;;5.77;4.17;;;;;;;;;;5027127;28;20451;-83
2021/08/12 09:22:46;;;;;;;4.43;4.03;;;;;;;;;;5041171;28;20399;-83
2021/08/12 09:25:13;;;;;;;4.17;3.70;;;;;;;;;;5046173;28;20507;-83
2021/08/12 09:27:39;;;;;;;6.00;4.60;;;;;;;;;;5046312;28;20436;-84
2021/08/12 09:30:26;;;;;;;7.27;4.43;;;;;;;;;;5046357;28;20471;-83
2021/08/12 09:32:52;;;;;;;4.10;3.80;;;;;;;;;;5045066;28;20403;-84
2021/08/12 09:35:22;;;;;;;7.73;4.43;;;;;;;;;;5028154;28;20416;-84
2021/08/12 09:37:48;;;;;;;4.33;3.93;;;;;;;;;;5045860;28;20404;-84
2021/08/12 09:40:13;;;;;;;4.83;4.30;;;;;;;;;;5045648;28;20413;-84
2021/08/12 09:42:56;;;;;;;4.93;4.43;;;;;;;;;;5039348;28;20462;-84
2021/08/12 09:45:24;;;;;;;4.60;4.20;;;;;;;;;;5031051;28;20793;-84
2021/08/12 09:47:50;;;;;;;5.47;4.40;;;;;;;;;;5033881;28;20444;-84
2021/08/12 09:50:26;;;;;;;5.17;4.67;;;;;;;;;;5027332;28;20400;-84
2021/08/12 09:52:53;;;;;;;5.03;4.20;;;;;;;;;;5028808;28;20496;-84
2021/08/12 09:55:20;;;;;;;4.83;4.23;;;;;;;;;;5034436;28;20423;-84
2021/08/12 09:57:48;;;;;;;5.50;4.30;;;;;;;;;;5040301;28;20423;-84
2021/08/12 10:00:26;;;;;;;5.03;4.60;;;;;;;;;;5045673;28;20452;-84
2021/08/12 10:02:52;;;;;;;5.10;4.53;;;;;;;;;;5043785;28;20430;-84
2021/08/12 10:05:18;;;;;;;5.17;4.73;;;;;;;;;;5028486;28;20408;-84
2021/08/12 10:07:45;;;;;;;4.63;4.17;;;;;;;;;;5043871;28;20940;-84
2021/08/12 10:10:13;;;;;;;5.50;4.10;;;;;;;;;;5045190;28;20421;-84
2021/08/12 10:12:46;;;;;;;4.50;3.80;;;;;;;;;;5038484;28;20409;-84
2021/08/12 10:15:12;;;;;;;5.87;4.67;;;;;;;;;;5031310;28;20431;-84
2021/08/12 10:17:42;;;;;;;4.30;3.90;;;;;;;;;;5043910;28;20882;-84
2021/08/12 10:20:10;;;;;;;5.37;4.80;;;;;;;;;;5027763;28;20441;-83
2021/08/12 10:22:37;;;;;;;4.40;4.00;;;;;;;;;;5043512;28;20876;-84
2021/08/12 10:25:03;;;;;;;5.97;4.57;;;;;;;;;;5045137;28;20452;-83
2021/08/12 10:27:29;;;;;;;5.33;3.87;;;;;;;;;;5045539;28;20440;-84
2021/08/12 10:29:55;;;;;;;5.70;4.53;;;;;;;;;;5045911;28;20442;-84
2021/08/12 10:32:22;;;;;;;4.17;3.77;;;;;;;;;;5045086;28;20449;-83
2021/08/12 10:34:48;;;;;;;5.17;4.53;;;;;;;;;;5029220;28;20425;-84
2021/08/12 10:37:14;;;;;;;4.70;4.30;;;;;;;;;;5041766;28;20471;-84
2021/08/12 10:39:41;;;;;;;6.40;4.10;;;;;;;;;;5036605;28;20451;-84
2021/08/12 10:42:07;;;;;;;7.00;4.30;;;;;;;;;;5035203;28;20513;-83
2021/08/12 10:44:35;;;;;;;5.00;4.23;;;;;;;;;;5045224;28;20428;-84
2021/08/12 10:47:01;;;;;;;4.90;4.50;;;;;;;;;;5041848;28;20761;-84
2021/08/12 10:49:31;;;;;;;4.80;4.00;;;;;;;;;;5033029;28;20464;-84
2021/08/12 10:52:00;;;;;;;5.93;4.07;;;;;;;;;;5034159;28;20437;-84
2021/08/12 10:54:27;;;;;;;4.63;4.23;;;;;;;;;;5033223;28;20449;-84
2021/08/12 10:57:13;;;;;;;5.40;4.40;;;;;;;;;;5033748;28;20509;-84
2021/08/12 10:59:40;;;;;;;5.43;4.33;;;;;;;;;;5040226;28;20431;-84
2021/08/12 11:02:24;;;;;;;4.60;4.20;;;;;;;;;;5046153;28;20435;-84
2021/08/12 11:04:52;;;;;;;5.13;4.63;;;;;;;;;;5032497;28;20425;-84
2021/08/12 11:07:36;;;;;;;8.67;4.47;;;;;;;;;;5047271;28;20436;-84
2021/08/12 11:10:03;;;;;;;6.80;4.43;;;;;;;;;;5049702;28;20440;-84
2021/08/12 11:12:48;;;;;;;7.93;4.60;;;;;;;;;;5047437;28;20439;-83
2021/08/12 11:15:14;;;;;;;4.63;4.23;;;;;;;;;;5045975;28;20438;-84
2021/08/12 11:17:54;;;;;;;5.00;4.60;;;;;;;;;;5049151;28;21023;-84
2021/08/12 11:20:30;;;;;;;5.73;4.60;;;;;;;;;;5047977;28;20476;-83
2021/08/12 11:22:56;;;;;;;7.23;4.70;;;;;;;;;;5037793;28;20915;-84
2021/08/12 11:25:42;;;;;;;6.50;4.30;;;;;;;;;;5034774;28;20515;-84
2021/08/12 11:28:28;;;;;;;6.27;4.57;;;;;;;;;;5045760;28;20471;-84
2021/08/12 11:30:54;;;;;;;4.70;4.37;;;;;;;;;;5041649;28;20959;-84
2021/08/12 11:33:27;;;;;;;4.93;4.43;;;;;;;;;;5033951;28;20439;-84
2021/08/12 11:36:12;;;;;;;5.17;4.70;;;;;;;;;;5034506;28;20475;-84
2021/08/12 11:38:41;;;;;;;6.37;4.40;;;;;;;;;;5047555;28;20457;-85
2021/08/12 11:41:08;;;;;;;6.00;4.57;;;;;;;;;;5046192;28;20470;-84
2021/08/12 11:43:34;;;;;;;5.60;5.07;;;;;;;;;;5034818;28;20416;-84
2021/08/12 11:46:00;;;;;;;4.97;4.57;;;;;;;;;;5043453;28;20432;-84
2021/08/12 11:48:31;;;;;;;5.20;4.80;;;;;;;;;;5048237;28;20443;-85
2021/08/12 11:51:00;;;;;;;6.37;5.27;;;;;;;;;;5047048;28;20436;-85
2021/08/12 11:53:36;;;;;;;6.40;4.60;;;;;;;;;;5030117;28;20474;-84
2021/08/12 11:56:22;;;;;;;5.77;5.20;;;;;;;;;;5042104;28;20475;-84
2021/08/12 11:58:49;;;;;;;5.40;4.33;;;;;;;;;;5030925;28;20447;-84
2021/08/12 12:01:16;;;;;;;5.40;4.90;;;;;;;;;;5043012;28;20433;-84
2021/08/12 12:03:43;;;;;;;4.90;4.07;;;;;;;;;;5046684;28;20436;-85
2021/08/12 12:06:09;;;;;;;5.73;4.93;;;;;;;;;;5047778;28;20503;-85
2021/08/12 12:08:35;;;;;;;5.67;5.07;;;;;;;;;;5044206;28;20448;-84
2021/08/12 12:11:08;;;;;;;7.13;5.77;;;;;;;;;;5028718;28;20491;-84
2021/08/12 12:13:34;;;;;;;5.63;4.97;;;;;;;;;;5034286;28;20421;-84
2021/08/12 12:16:00;;;;;;;5.70;5.27;;;;;;;;;;5033818;28;20487;-85
2021/08/12 12:18:34;;;;;;;5.60;5.10;;;;;;;;;;5035354;28;20541;-85
2021/08/12 12:21:03;;;;;;;5.70;5.20;;;;;;;;;;5036625;28;20428;-85
2021/08/12 12:23:29;;;;;;;5.00;4.47;;;;;;;;;;5045365;28;20962;-85
2021/08/12 12:25:55;;;;;;;6.37;5.20;;;;;;;;;;5029026;28;20424;-84
2021/08/12 12:28:21;;;;;;;5.20;4.70;;;;;;;;;;5046939;28;20526;-84
2021/08/12 12:30:47;;;;;;;6.07;5.47;;;;;;;;;;5040145;28;20430;-84
2021/08/12 12:33:15;;;;;;;5.67;5.27;;;;;;;;;;5034961;28;20535;-84
2021/08/12 12:35:54;;;;;;;7.23;6.50;;;;;;;;;;5046866;28;20459;-85
2021/08/12 12:38:24;;;;;;;5.20;4.70;;;;;;;;;;5045917;28;20483;-84
2021/08/12 12:40:51;;;;;;;5.63;5.13;;;;;;;;;;5045799;28;20414;-86
2021/08/12 12:43:17;;;;;;;6.20;5.60;;;;;;;;;;5047374;28;20449;-85
2021/08/12 12:45:46;;;;;;;7.97;5.20;;;;;;;;;;5046253;28;20435;-86
2021/08/12 12:48:12;;;;;;;5.80;5.30;;;;;;;;;;5043366;28;20432;-86
2021/08/12 12:50:43;;;;;;;5.40;5.00;;;;;;;;;;5030460;28;20439;-84
2021/08/12 12:53:09;;;;;;;6.30;5.50;;;;;;;;;;5029616;28;20483;-85
2021/08/12 12:55:35;;;;;;;5.87;5.30;;;;;;;;;;5033075;28;20499;-85
2021/08/12 12:58:17;;;;;;;5.77;5.17;;;;;;;;;;5042898;28;20436;-85
2021/08/12 13:00:44;;;;;;;6.10;5.33;;;;;;;;;;5040864;28;20433;-85
2021/08/12 13:03:10;;;;;;;5.90;5.30;;;;;;;;;;5035168;28;20432;-85
2021/08/12 13:05:49;;;;;;;5.60;4.93;;;;;;;;;;5029184;28;20847;-85
2021/08/12 13:08:15;;;;;;;5.50;5.00;;;;;;;;;;5028070;28;20459;-84
2021/08/12 13:10:41;;;;;;;6.50;5.90;;;;;;;;;;5031856;28;20899;-85
2021/08/12 13:13:07;;;;;;;7.20;6.57;;;;;;;;;;5033644;28;20444;-84
2021/08/12 13:15:36;;;;;;;5.80;5.37;;;;;;;;;;5033515;28;20429;-85
2021/08/12 13:18:04;;;;;;;7.53;6.00;;;;;;;;;;5031846;28;20433;-85
2021/08/12 13:20:43;;;;;;;5.83;5.13;;;;;;;;;;5044419;28;20495;-86
2021/08/12 13:23:09;;;;;;;5.80;5.30;;;;;;;;;;5041996;28;20524;-85
2021/08/12 13:25:36;;;;;;;6.00;5.50;;;;;;;;;;5032925;28;20413;-85
2021/08/12 13:28:02;;;;;;;6.00;5.50;;;;;;;;;;5043320;28;20459;-85
2021/08/12 13:30:32;;;;;;;6.07;5.47;;;;;;;;;;5045827;28;20516;-85
2021/08/12 13:32:59;;;;;;;5.40;4.90;;;;;;;;;;5046092;28;20523;-85
2021/08/12 13:35:25;;;;;;;6.37;4.90;;;;;;;;;;5029958;28;20529;-85
2021/08/12 13:37:51;;;;;;;6.70;6.00;;;;;;;;;;5045053;28;20417;-84
2021/08/12 13:40:18;;;;;;;5.93;5.43;;;;;;;;;;5035221;28;20437;-85
2021/08/12 13:42:44;;;;;;;6.23;5.60;;;;;;;;;;5037572;28;20424;-86
2021/08/12 13:45:10;;;;;;;7.17;6.47;;;;;;;;;;5042975;28;20436;-85
2021/08/12 13:47:36;;;;;;;6.33;5.70;;;;;;;;;;5043296;28;20655;-85
2021/08/12 13:50:03;;;;;;;7.03;6.23;;;;;;;;;;5026552;28;20435;-85
2021/08/12 13:52:29;;;;;;;6.23;5.73;;;;;;;;;;5032867;28;20445;-85
2021/08/12 13:54:55;;;;;;;6.70;6.00;;;;;;;;;;5042508;28;20479;-85
2021/08/12 13:57:21;;;;;;;5.50;5.10;;;;;;;;;;5043025;28;20468;-85
2021/08/12 13:59:47;;;;;;;6.40;5.90;;;;;;;;;;5046608;28;20478;-86
2021/08/12 14:02:13;;;;;;;5.57;4.90;;;;;;;;;;5042188;28;20957;-85
2021/08/12 14:04:39;;;;;;;5.83;5.10;;;;;;;;;;5046201;28;20413;-85
2021/08/12 14:07:05;;;;;;;6.30;5.80;;;;;;;;;;5044451;28;20468;-84
2021/08/12 14:09:31;;;;;;;6.50;6.00;;;;;;;;;;5040452;28;20445;-85
2021/08/12 14:11:57;;;;;;;7.13;5.10;;;;;;;;;;5032894;28;20433;-85
2021/08/12 14:14:24;;;;;;;5.27;4.40;;;;;;;;;;5028342;28;20453;-85
2021/08/12 14:16:50;;;;;;;5.57;5.07;;;;;;;;;;5028456;28;20482;-85
2021/08/12 14:19:16;;;;;;;5.97;5.47;;;;;;;;;;5041091;28;20481;-85
2021/08/12 14:21:42;;;;;;;5.97;5.37;;;;;;;;;;5039536;28;20461;-85
2021/08/12 14:24:08;;;;;;;5.47;4.97;;;;;;;;;;5035298;28;20453;-86
2021/08/12 14:26:34;;;;;;;6.27;5.73;;;;;;;;;;5042781;28;20464;-86
2021/08/12 14:29:01;;;;;;;4.90;4.60;;;;;;;;;;5026095;28;20444;-85
2021/08/12 14:31:27;;;;;;;7.63;6.37;;;;;;;;;;5041025;28;21187;-83
2021/08/12 14:33:53;;;;;;;6.60;6.00;;;;;;;;;;5045302;28;20444;-84
2021/08/12 14:36:19;;;;;;;6.10;5.50;;;;;;;;;;5045425;28;20534;-85
2021/08/12 14:38:47;;;;;;;6.83;5.83;;;;;;;;;;5045268;28;20435;-85
2021/08/12 14:41:13;;;;;;;6.57;5.97;;;;;;;;;;5043900;28;20412;-86
2021/08/12 14:43:39;;;;;;;6.40;5.90;;;;;;;;;;5045580;28;20502;-87
2021/08/12 14:46:06;;;;;;;5.43;4.93;;;;;;;;;;5035107;28;20543;-86